M I D A S
Marine Information and Data Acquisition System
Tripno 748 of the Zeeleeuw from 2004-07-14 06:30:53 to 2004-07-14 14:45:08
Back to CruiseResearch ActivitiesStationsMapUnderway DataData graphs

EquipmentUnitsComment
TimeDGPSUTC
LatitudeDGPSDM.mWGS84
LongitudeDGPSDM.mWGS84
HeadingGyrodeg 
SOGDGPSknotsSpeed over ground
COGDGPSdegCourse over ground
DepthEcho soundermeters200 kHz
Missing or incorrect values are displayed as -999
Navigation data collected by the RV Zeeleeuw from 2004-07-14 06:30:53 to 2004-07-14 14:45:08
Time Latitude Longitude Heading SOG COG Depth
2004-07-14 06:31:55 51°13.633 2°55.965 117.6 4.7 294 -999
2004-07-14 06:32:55 51°13.66 2°55.849 103.6 4.6 282 -999
2004-07-14 06:33:55 51°13.661 2°55.755 74.3 0.8 275 10.4
2004-07-14 06:34:55 51°13.719 2°55.75 336.1 5.8 331 11.8
2004-07-14 06:35:55 51°13.81 2°55.651 330.9 7.3 327 9.7
2004-07-14 06:36:55 51°13.924 2°55.56 341 7.8 336 9.5
2004-07-14 06:37:55 51°14.046 2°55.472 341.3 8.4 336 10.7
2004-07-14 06:38:55 51°14.193 2°55.354 333.4 10.6 328 11.5
2004-07-14 06:39:55 51°14.325 2°55.143 315.6 12 310 10.8
2004-07-14 06:40:55 51°14.461 2°54.88 314.4 13.4 307 10.6
2004-07-14 06:41:53 51°14.587 2°54.598 310.1 13.6 303 9.9
2004-07-14 06:42:53 51°14.71 2°54.295 308.4 13.6 302 10.1
2004-07-14 06:43:53 51°14.815 2°53.979 303.2 13.5 297 9.4
2004-07-14 06:44:56 51°14.919 2°53.642 303.7 13.5 296 9.5
2004-07-14 06:45:54 51°15.015 2°53.33 301.9 13.6 294 9.8
2004-07-14 06:46:56 51°15.108 2°52.99 300.2 13.6 292 10.2
2004-07-14 06:47:54 51°15.188 2°52.665 296.6 13.7 289 10.9
2004-07-14 06:48:54 51°15.253 2°52.316 290.3 13.8 282 11.5
2004-07-14 06:49:54 51°15.265 2°51.952 272.9 13.8 265 11.9
2004-07-14 06:50:54 51°15.235 2°51.587 268.6 13.9 262 11.9
2004-07-14 06:51:59 51°15.2 2°51.192 267.3 14 261 12.4
2004-07-14 06:52:59 51°15.163 2°50.828 267.4 13.8 262 12.6
2004-07-14 06:54:01 51°15.117 2°50.457 262 13.9 256 12.8
2004-07-14 06:55:04 51°15.056 2°50.082 261.6 13.9 256 12.8
2004-07-14 06:56:04 51°15.013 2°49.719 265.6 13.9 260 12.9
2004-07-14 06:57:04 51°14.973 2°49.356 265.9 13.9 261 12.7
2004-07-14 06:58:08 51°14.931 2°48.971 265.9 13.8 260 12.8
2004-07-14 06:59:06 51°14.894 2°48.625 266.5 13.7 262 12.7
2004-07-14 07:00:08 51°14.854 2°48.256 266 13.7 259 12.4
2004-07-14 07:01:08 51°14.816 2°47.899 266 13.6 261 14
2004-07-14 07:02:08 51°14.779 2°47.543 266.7 13.6 260 13
2004-07-14 07:03:06 51°14.744 2°47.2 265.7 13.5 260 13.1
2004-07-14 07:04:06 51°14.706 2°46.844 266.2 13.5 260 13
2004-07-14 07:05:08 51°14.669 2°46.477 265.6 13.5 259 11.8
2004-07-14 07:06:08 51°14.631 2°46.13 266 13.4 260 10
2004-07-14 07:07:08 51°14.595 2°45.785 266.5 13.2 260 8.7
2004-07-14 07:08:08 51°14.559 2°45.438 266.6 13.4 260 9
2004-07-14 07:09:06 51°14.525 2°45.097 265.9 13.5 259 10.9
2004-07-14 07:10:08 51°14.487 2°44.731 265.7 13.5 260 12.3
2004-07-14 07:11:08 51°14.45 2°44.379 266.6 13.5 260 13.9
2004-07-14 07:12:06 51°14.414 2°44.036 266.2 13.5 260 14.9
2004-07-14 07:13:08 51°14.38 2°43.668 269.4 13.5 264 15.9
2004-07-14 07:14:08 51°14.358 2°43.311 272 13.6 266 16.9
2004-07-14 07:15:06 51°14.342 2°42.963 271.1 13.6 266 17.2
2004-07-14 07:16:12 51°14.324 2°42.572 271.5 13.5 267 17.5
2004-07-14 07:17:12 51°14.309 2°42.216 272 13.3 266 17.7
2004-07-14 07:18:12 51°14.294 2°41.864 271.4 13.2 265 17.3
2004-07-14 07:19:12 51°14.279 2°41.515 271 13.1 266 15.8
2004-07-14 07:20:12 51°14.265 2°41.166 271.4 13.1 266 15.1
2004-07-14 07:21:12 51°14.252 2°40.818 272 13.1 266 15.5
2004-07-14 07:22:12 51°14.238 2°40.471 271.9 13 265 14.5
2004-07-14 07:23:12 51°14.225 2°40.125 270.8 13 268 12.6
2004-07-14 07:24:12 51°14.212 2°39.782 271.2 13.1 266 13.8
2004-07-14 07:25:12 51°14.198 2°39.437 271 13.1 264 13.7
2004-07-14 07:26:12 51°14.183 2°39.092 271.7 13 264 12
2004-07-14 07:27:17 51°14.132 2°38.723 260.2 13.3 254 13.8
2004-07-14 07:28:17 51°14.073 2°38.384 259.8 13.2 256 16.7
2004-07-14 07:29:16 51°14.012 2°38.051 256.4 13.3 251 17.9
2004-07-14 07:30:17 51°13.939 2°37.711 255.5 13.4 250 18.8
2004-07-14 07:31:16 51°13.871 2°37.381 256.7 13.2 252 20.3
2004-07-14 07:32:24 51°13.754 2°37.022 243.5 13.5 239 20.6
2004-07-14 07:33:24 51°13.641 2°36.716 242.8 13.3 238 19.9
2004-07-14 07:34:24 51°13.528 2°36.408 242.7 13.4 240 18.6
2004-07-14 07:35:22 51°13.414 2°36.118 240.6 13.3 238 17.8
2004-07-14 07:36:21 51°13.297 2°35.827 241.6 13.1 238 17.9
2004-07-14 07:37:22 51°13.174 2°35.526 236.4 13.3 233 17.3
2004-07-14 07:38:24 51°13.026 2°35.253 230.6 13 227 16.5
2004-07-14 07:39:24 51°12.872 2°34.999 228.6 13.4 224 12.9
2004-07-14 07:40:24 51°12.717 2°34.751 228.8 13 225 13.8
2004-07-14 07:41:24 51°12.562 2°34.502 229.1 13.3 225 15.8
2004-07-14 07:42:22 51°12.413 2°34.261 228.6 13.4 224 16.7
2004-07-14 07:43:23 51°12.257 2°34.009 228.8 13.2 225 18.4
2004-07-14 07:44:23 51°12.104 2°33.76 229.1 13 227 19.2
2004-07-14 07:45:23 51°11.97 2°33.538 231.8 8.6 227 19.5
2004-07-14 07:46:23 51°11.925 2°33.422 250.5 3.3 246 20.1
2004-07-14 07:47:23 51°11.904 2°33.377 234.1 1.5 211 20.2
2004-07-14 07:48:23 51°11.888 2°33.381 206.3 0.9 133 20
2004-07-14 07:49:24 51°11.881 2°33.409 183.6 1.2 103 19.6
2004-07-14 07:50:24 51°11.878 2°33.442 169.9 1.3 96 19.4
2004-07-14 07:51:23 51°11.86 2°33.476 181.7 2 146 18.6
2004-07-14 07:52:24 51°11.828 2°33.486 208.3 2.2 180 18.1
2004-07-14 07:53:23 51°11.787 2°33.471 217.6 2.7 201 16.6
2004-07-14 07:54:23 51°11.745 2°33.431 230.8 3.1 217 16.7
2004-07-14 07:55:22 51°11.709 2°33.372 238.7 3.3 228 16.8
2004-07-14 07:56:23 51°11.676 2°33.301 245.8 3.3 240 16.8
2004-07-14 07:57:23 51°11.646 2°33.229 243.3 3.3 237 16.6
2004-07-14 07:58:22 51°11.613 2°33.164 238.4 3.2 232 15.9
2004-07-14 07:59:23 51°11.579 2°33.101 239 3.1 229 15.2
2004-07-14 08:00:23 51°11.544 2°33.038 238.6 3.1 228 14.5
2004-07-14 08:01:23 51°11.509 2°32.979 239.3 3 229 14.2
2004-07-14 08:02:24 51°11.478 2°32.915 243.5 3 232 14.3
2004-07-14 08:03:27 51°11.446 2°32.848 241.8 3.1 230 14.4
2004-07-14 08:04:26 51°11.415 2°32.786 243.4 3.1 227 14.5
2004-07-14 08:05:27 51°11.385 2°32.719 243.2 3.1 236 14.4
2004-07-14 08:06:27 51°11.355 2°32.657 242.3 3 228 14.6
2004-07-14 08:07:27 51°11.325 2°32.598 240.8 2.8 225 14.7
2004-07-14 08:08:26 51°11.293 2°32.551 237.5 2.5 221 14.8
2004-07-14 08:09:27 51°11.26 2°32.503 238.5 2.7 225 15.1
2004-07-14 08:10:32 51°11.226 2°32.452 239.9 2.6 223 15.2
2004-07-14 08:11:31 51°11.199 2°32.399 241.1 2.6 230 15.4
2004-07-14 08:12:31 51°11.169 2°32.35 237.8 2.7 223 15.6
2004-07-14 08:13:32 51°11.139 2°32.298 239.9 2.6 229 16.2
2004-07-14 08:14:32 51°11.109 2°32.248 238.9 2.7 229 16.8
2004-07-14 08:15:32 51°11.079 2°32.198 238.7 2.5 220 17.2
2004-07-14 08:16:32 51°11.048 2°32.154 237.3 2.6 219 17.2
2004-07-14 08:17:32 51°11.018 2°32.107 239.5 2.5 227 17.5
2004-07-14 08:18:32 51°10.987 2°32.059 239.9 2.6 223 17.5
2004-07-14 08:19:31 51°10.957 2°32.014 239.5 2.4 223 17.6
2004-07-14 08:20:31 51°10.928 2°31.969 239.7 2.5 227 17.6
2004-07-14 08:21:32 51°10.897 2°31.921 239.1 2.6 227 17.9
2004-07-14 08:22:31 51°10.868 2°31.885 236.2 2.1 217 18.1
2004-07-14 08:23:32 51°10.841 2°31.846 243 2.2 231 18.3
2004-07-14 08:24:32 51°10.817 2°31.799 243 2.4 225 18.4
2004-07-14 08:25:32 51°10.79 2°31.751 241.7 2.5 228 18.6
2004-07-14 08:26:32 51°10.764 2°31.704 242.6 2.3 234 18.7
2004-07-14 08:27:30 51°10.744 2°31.654 253.3 2.2 252 19
2004-07-14 08:28:36 51°10.74 2°31.59 267.3 2.1 273 19.4
2004-07-14 08:29:35 51°10.752 2°31.535 284.4 2.3 301 19.6
2004-07-14 08:30:34 51°10.781 2°31.485 299 2.9 323 19.7
2004-07-14 08:31:36 51°10.829 2°31.458 325.9 2.9 352 19.8
2004-07-14 08:32:36 51°10.868 2°31.463 327.3 2 10 20
2004-07-14 08:33:36 51°10.896 2°31.481 327.6 1.7 32 20.4
2004-07-14 08:34:36 51°10.932 2°31.503 351.2 3.1 19 20.5
2004-07-14 08:35:36 51°10.992 2°31.555 24.5 4.7 34 20.9
2004-07-14 08:36:36 51°11.058 2°31.637 37 4.9 45 21.4
2004-07-14 08:37:34 51°11.113 2°31.725 36.1 4.8 42 21.9
2004-07-14 08:38:35 51°11.172 2°31.798 26.2 3.9 40 22.2
2004-07-14 08:39:36 51°11.214 2°31.874 48.9 3.7 55 22.2
2004-07-14 08:40:36 51°11.238 2°31.961 77.7 3.5 71 21.8
2004-07-14 08:41:36 51°11.254 2°32.053 80.7 3.6 73 21.2
2004-07-14 08:42:36 51°11.272 2°32.147 80.2 3.7 73 20.3
2004-07-14 08:43:36 51°11.289 2°32.239 79.1 3.6 74 19.3
2004-07-14 08:44:36 51°11.307 2°32.332 80.5 3.6 74 18.3
2004-07-14 08:45:36 51°11.328 2°32.421 69.7 3.5 67 17.1
2004-07-14 08:46:36 51°11.352 2°32.505 67.4 3.6 66 16.8
2004-07-14 08:47:36 51°11.371 2°32.592 76.1 3.4 70 16.3
2004-07-14 08:48:36 51°11.391 2°32.678 72.2 3.3 66 15.6
2004-07-14 08:49:36 51°11.415 2°32.758 58.4 3.4 61 15.4
2004-07-14 08:50:34 51°11.444 2°32.832 48.6 3.4 58 15.1
2004-07-14 08:51:36 51°11.477 2°32.909 45.5 3.5 57 15
2004-07-14 08:52:36 51°11.508 2°32.984 46.6 3.4 54 14.9
2004-07-14 08:53:36 51°11.541 2°33.056 44.6 3.4 54 15
2004-07-14 08:54:36 51°11.571 2°33.131 51.9 3.5 59 15.2
2004-07-14 08:55:36 51°11.601 2°33.211 59.2 3.5 63 15.4
2004-07-14 08:56:36 51°11.627 2°33.291 57.3 3.4 62 15.8
2004-07-14 08:57:36 51°11.655 2°33.371 57 3.4 60 15.7
2004-07-14 08:58:36 51°11.682 2°33.453 60.9 3.6 64 16.2
2004-07-14 08:59:36 51°11.706 2°33.541 69.1 3.7 66 16.1
2004-07-14 09:00:35 51°11.729 2°33.63 72.3 3.7 70 15.9
2004-07-14 09:01:33 51°11.751 2°33.716 66 3.6 64 16
2004-07-14 09:02:36 51°11.78 2°33.803 54 3.5 59 16
2004-07-14 09:03:36 51°11.813 2°33.88 39.7 3.5 52 15.9
2004-07-14 09:04:40 51°11.851 2°33.951 29.9 3.2 50 15.8
2004-07-14 09:05:44 51°11.89 2°34.017 25.4 3.2 49 15.9
2004-07-14 09:06:44 51°11.925 2°34.08 32.6 3.2 53 16.2
2004-07-14 09:07:44 51°11.958 2°34.15 41.5 3.3 53 16
2004-07-14 09:08:44 51°11.989 2°34.221 41.3 3.2 53 16
2004-07-14 09:09:44 51°12.023 2°34.291 34.2 3.4 50 16.1
2004-07-14 09:10:44 51°12.059 2°34.356 25.3 3.3 48 16.1
2004-07-14 09:11:44 51°12.096 2°34.416 16.7 3.1 45 16
2004-07-14 09:12:44 51°12.132 2°34.468 7.2 3 42 16.1
2004-07-14 09:13:44 51°12.168 2°34.515 2.7 2.8 39 15.8
2004-07-14 09:14:43 51°12.213 2°34.569 15.5 4.1 36 15.6
2004-07-14 09:15:42 51°12.271 2°34.643 29.7 4.9 40 15.3
2004-07-14 09:16:43 51°12.336 2°34.731 30.3 5.2 41 14.8
2004-07-14 09:17:43 51°12.405 2°34.817 22.1 5.2 32 14.6
2004-07-14 09:18:43 51°12.48 2°34.848 342.5 4 5 15.3
2004-07-14 09:19:43 51°12.532 2°34.86 329.6 2.6 12 16.6
2004-07-14 09:20:43 51°12.568 2°34.879 323.7 2.1 24 16.4
2004-07-14 09:21:44 51°12.597 2°34.907 322.3 1.8 35 16.7
2004-07-14 09:22:43 51°12.622 2°34.941 325.6 1.9 44 15.9
2004-07-14 09:23:43 51°12.66 2°34.962 327.9 2.8 359 16.3
2004-07-14 09:24:43 51°12.714 2°34.959 326.7 3.4 357 16.1
2004-07-14 09:25:44 51°12.757 2°34.966 318.1 1.8 37 15.6
2004-07-14 09:26:45 51°12.783 2°34.996 308.4 1.7 32 15.1
2004-07-14 09:27:43 51°12.808 2°35.02 308.2 1.5 32 14.5
2004-07-14 09:28:43 51°12.835 2°35.048 317.3 1.9 35 14.5
2004-07-14 09:29:43 51°12.86 2°35.082 319.1 1.8 40 14.1
2004-07-14 09:30:44 51°12.886 2°35.115 314.6 1.9 38 14.3
2004-07-14 09:31:43 51°12.913 2°35.146 320 2 34 14.6
2004-07-14 09:32:44 51°12.941 2°35.177 314.9 1.9 31 14.9
2004-07-14 09:33:44 51°12.969 2°35.202 312.9 1.8 28 15.7
2004-07-14 09:34:43 51°12.997 2°35.225 311 2.1 30 16.8
2004-07-14 09:35:44 51°13.027 2°35.252 317.9 1.9 26 18.2
2004-07-14 09:36:44 51°13.056 2°35.278 318.9 2 25 19.1
2004-07-14 09:37:44 51°13.087 2°35.3 314.1 1.9 25 19.1
2004-07-14 09:38:43 51°13.113 2°35.327 312.8 1.9 40 19
2004-07-14 09:39:44 51°13.139 2°35.367 323.5 2.2 47 19.2
2004-07-14 09:40:49 51°13.163 2°35.415 330.6 2.2 54 19.5
2004-07-14 09:41:50 51°13.185 2°35.463 332.4 2.3 54 19.6
2004-07-14 09:42:49 51°13.217 2°35.496 335.2 3.9 4 19.6
2004-07-14 09:43:49 51°13.304 2°35.565 50.2 7.8 49 19.9
2004-07-14 09:44:49 51°13.421 2°35.824 64.1 14.3 61 20
2004-07-14 09:45:50 51°13.534 2°36.172 70.3 14.7 67 20.2
2004-07-14 09:46:49 51°13.634 2°36.525 70.1 14.9 66 21.6
2004-07-14 09:47:49 51°13.735 2°36.884 70 15 65 21.4
2004-07-14 09:48:49 51°13.836 2°37.24 72 14.8 66 21.8
2004-07-14 09:49:50 51°13.943 2°37.6 68 14.8 63 20.9
2004-07-14 09:50:49 51°14.002 2°37.965 86.2 14.4 80 20.3
2004-07-14 09:51:49 51°14.042 2°38.349 86.9 14.5 81 18.4
2004-07-14 09:52:49 51°14.025 2°38.72 118.1 14 111 13.9
2004-07-14 09:53:50 51°13.863 2°38.955 166 12.5 163 16.1
2004-07-14 09:54:49 51°13.682 2°38.883 217.6 12 213 17
2004-07-14 09:55:48 51°13.518 2°38.714 217.8 12.1 211 17.1
2004-07-14 09:56:50 51°13.344 2°38.54 219.5 11.9 212 16.8
2004-07-14 09:57:48 51°13.182 2°38.376 218 12.1 212 16.6
2004-07-14 09:58:49 51°13.013 2°38.201 220.2 11.9 215 16.1
2004-07-14 09:59:50 51°12.843 2°38.024 220.1 11.9 213 15.6
2004-07-14 10:00:49 51°12.678 2°37.855 219.3 12.1 214 15.2
2004-07-14 10:01:49 51°12.511 2°37.683 219.6 11.9 214 14.7
2004-07-14 10:02:49 51°12.344 2°37.511 219.2 12.1 213 14.2
2004-07-14 10:03:53 51°12.165 2°37.328 219.3 12 212 13.9
2004-07-14 10:04:53 51°11.998 2°37.157 219.5 11.7 213 13.8
2004-07-14 10:05:53 51°11.831 2°36.983 219 12 212 13.8
2004-07-14 10:06:58 51°11.652 2°36.798 219.6 12.1 214 13.6
2004-07-14 10:07:58 51°11.485 2°36.623 219.7 11.8 214 13.8
2004-07-14 10:08:57 51°11.322 2°36.453 219.5 12.2 215 13.6
2004-07-14 10:09:57 51°11.156 2°36.28 219.5 11.7 213 13.6
2004-07-14 10:10:57 51°10.989 2°36.108 219.1 12 212 13.3
2004-07-14 10:12:04 51°10.806 2°35.909 221.4 11.8 215 13.1
2004-07-14 10:13:03 51°10.649 2°35.727 221.8 11.9 215 13
2004-07-14 10:14:01 51°10.496 2°35.548 221.3 11.8 215 12.9
2004-07-14 10:15:09 51°10.314 2°35.342 222.2 11.6 215 13.7
2004-07-14 10:16:09 51°10.151 2°35.159 220.5 12 215 13.6
2004-07-14 10:17:09 51°9.991 2°34.976 221.7 11.6 216 13.3
2004-07-14 10:18:08 51°9.834 2°34.794 221.7 11.7 215 15.7
2004-07-14 10:19:08 51°9.675 2°34.614 220.6 11.6 215 19.1
2004-07-14 10:20:08 51°9.519 2°34.438 221.5 11.3 217 21
2004-07-14 10:21:10 51°9.352 2°34.27 213.4 11.4 205 20.8
2004-07-14 10:22:09 51°9.178 2°34.155 208.3 11.4 201 20.1
2004-07-14 10:23:09 51°8.994 2°34.071 202.2 11.6 194 18.2
2004-07-14 10:24:09 51°8.802 2°34.102 177.2 10.5 166 19.1
2004-07-14 10:25:10 51°8.67 2°34.158 179.7 7.2 164 19.6
2004-07-14 10:26:10 51°8.569 2°34.173 209.7 5.3 199 19.4
2004-07-14 10:27:10 51°8.537 2°34.115 255.5 0.9 268 19.3
2004-07-14 10:28:10 51°8.556 2°34.123 308.5 1.8 33 19.4
2004-07-14 10:29:16 51°8.58 2°34.169 348.8 2.1 50 19.4
2004-07-14 10:30:16 51°8.602 2°34.214 356.2 2.2 52 19.4
2004-07-14 10:31:16 51°8.624 2°34.259 354.8 2.1 50 19.4
2004-07-14 10:32:16 51°8.655 2°34.299 356.9 3.6 22 -999
2004-07-14 10:33:16 51°8.712 2°34.393 72.8 5.7 69 19.7
2004-07-14 10:34:15 51°8.687 2°34.511 157.9 4.4 136 19.5
2004-07-14 10:35:16 51°8.638 2°34.514 227.8 2.1 212 19.3
2004-07-14 10:36:18 51°8.615 2°34.47 235.8 1.8 227 19.2
2004-07-14 10:37:24 51°8.594 2°34.438 239.4 1.3 232 19.3
2004-07-14 10:38:23 51°8.582 2°34.409 246.9 1.3 245 19.3
2004-07-14 10:39:24 51°8.572 2°34.371 247.5 2 247 19.4
2004-07-14 10:40:24 51°8.556 2°34.315 243.1 2.5 243 19.3
2004-07-14 10:41:24 51°8.532 2°34.253 241.7 2.7 235 19.2
2004-07-14 10:42:24 51°8.514 2°34.194 245.2 2.4 243 19.5
2004-07-14 10:43:24 51°8.499 2°34.146 245.1 2.1 245 19.3
2004-07-14 10:44:24 51°8.481 2°34.092 243.3 2.4 236 19.2
2004-07-14 10:45:24 51°8.461 2°34.035 243.4 2.6 244 19.3
2004-07-14 10:46:24 51°8.441 2°33.968 244.4 3 241 19.2
2004-07-14 10:47:24 51°8.42 2°33.904 243.5 2.6 241 19.2
2004-07-14 10:48:24 51°8.399 2°33.849 243 2.2 234 19.1
2004-07-14 10:49:24 51°8.381 2°33.799 244.9 2.3 243 19.2
2004-07-14 10:50:24 51°8.363 2°33.746 243.9 2.3 240 19.1
2004-07-14 10:51:24 51°8.344 2°33.695 243.1 2.3 238 19.1
2004-07-14 10:52:24 51°8.325 2°33.64 244.5 2.4 244 19.2
2004-07-14 10:53:24 51°8.307 2°33.583 244 2.5 242 19.2
2004-07-14 10:54:24 51°8.288 2°33.524 245.3 2.5 241 19
2004-07-14 10:55:24 51°8.268 2°33.466 243.8 2.5 242 19
2004-07-14 10:56:28 51°8.248 2°33.403 244.3 2.5 242 18.9
2004-07-14 10:57:28 51°8.229 2°33.344 244.9 2.5 244 18.8
2004-07-14 10:58:33 51°8.208 2°33.282 243.3 2.4 241 18.9
2004-07-14 10:59:33 51°8.189 2°33.227 243.5 2.4 240 18.8
2004-07-14 11:00:31 51°8.168 2°33.169 244.1 2.6 241 18.9
2004-07-14 11:01:33 51°8.148 2°33.105 245.3 2.6 247 18.7
2004-07-14 11:02:33 51°8.127 2°33.045 244.7 2.6 241 18.6
2004-07-14 11:03:33 51°8.107 2°32.987 244 2.6 243 18.6
2004-07-14 11:04:33 51°8.088 2°32.925 244.2 2.6 244 18.6
2004-07-14 11:05:33 51°8.068 2°32.864 243.2 2.6 243 18.5
2004-07-14 11:06:33 51°8.047 2°32.804 244.5 2.7 245 18.4
2004-07-14 11:07:33 51°8.029 2°32.744 245.2 2.6 242 18.4
2004-07-14 11:08:32 51°8.011 2°32.684 243.3 2.7 241 18.5
2004-07-14 11:09:33 51°7.992 2°32.619 245.8 2.7 245 18.6
2004-07-14 11:10:33 51°7.971 2°32.556 241.5 2.6 238 18.4
2004-07-14 11:11:33 51°7.948 2°32.497 240.1 2.7 238 18.5
2004-07-14 11:12:33 51°7.923 2°32.437 238.9 2.8 238 18.4
2004-07-14 11:13:33 51°7.898 2°32.376 238.5 2.7 236 18.1
2004-07-14 11:14:33 51°7.872 2°32.316 237.9 2.8 235 17.9
2004-07-14 11:15:32 51°7.847 2°32.26 238.8 2.7 237 17.6
2004-07-14 11:16:33 51°7.824 2°32.201 240.4 2.6 237 17.2
2004-07-14 11:17:33 51°7.803 2°32.14 241 2.7 238 16.9
2004-07-14 11:18:33 51°7.779 2°32.081 239.2 2.6 237 16.6
2004-07-14 11:19:31 51°7.759 2°32.028 240.9 2.4 239 16.4
2004-07-14 11:20:33 51°7.738 2°31.972 240.6 2 239 16.4
2004-07-14 11:21:33 51°7.734 2°31.948 249.5 0.4 308 16.3
2004-07-14 11:22:33 51°7.738 2°31.927 248.2 1.1 254 16.4
2004-07-14 11:23:33 51°7.707 2°31.941 164.7 3.2 136 16
2004-07-14 11:24:33 51°7.704 2°32.053 78 4.8 66 15.7
2004-07-14 11:25:33 51°7.741 2°32.149 63.8 4.2 59 16.1
2004-07-14 11:26:33 51°7.772 2°32.24 74.8 3.7 64 16.4
2004-07-14 11:27:33 51°7.797 2°32.325 79.2 3.5 66 16.4
2004-07-14 11:28:33 51°7.821 2°32.409 78.6 3.5 62 16.4
2004-07-14 11:29:33 51°7.847 2°32.489 68.3 3.3 58 16.6
2004-07-14 11:30:33 51°7.878 2°32.562 60.8 3.4 55 16.9
2004-07-14 11:31:33 51°7.908 2°32.639 68 3.4 60 17
2004-07-14 11:32:33 51°7.935 2°32.719 72.5 3.4 61 17.1
2004-07-14 11:33:33 51°7.963 2°32.797 67.3 3.4 59 17.2
2004-07-14 11:34:33 51°7.993 2°32.871 59.1 3.3 55 17.2
2004-07-14 11:35:33 51°8.025 2°32.943 57.3 3.4 55 17.4
2004-07-14 11:36:33 51°8.056 2°33.018 64.4 3.4 59 17.7
2004-07-14 11:37:33 51°8.086 2°33.094 66.1 3.3 61 17.7
2004-07-14 11:38:33 51°8.113 2°33.17 68.4 3.4 60 18
2004-07-14 11:39:33 51°8.142 2°33.246 67.5 3.3 59 18
2004-07-14 11:40:33 51°8.17 2°33.322 69.2 3.3 60 18
2004-07-14 11:41:33 51°8.196 2°33.4 75.6 3.3 64 17.9
2004-07-14 11:42:33 51°8.218 2°33.477 78.5 3.2 66 18.1
2004-07-14 11:43:32 51°8.243 2°33.55 69.1 3.3 58 18.1
2004-07-14 11:44:33 51°8.269 2°33.629 73.5 3.4 60 18.2
2004-07-14 11:45:33 51°8.294 2°33.708 73.6 3.3 63 18.2
2004-07-14 11:46:38 51°8.321 2°33.795 72.4 3.4 65 18.1
2004-07-14 11:47:43 51°8.351 2°33.878 62.6 3.4 58 18.3
2004-07-14 11:48:43 51°8.382 2°33.955 65.1 3.5 58 18.3
2004-07-14 11:49:43 51°8.411 2°34.035 70.7 3.4 62 18.3
2004-07-14 11:50:43 51°8.436 2°34.113 73.3 3.4 61 18.4
2004-07-14 11:51:43 51°8.461 2°34.192 74.7 3.3 63 18.3
2004-07-14 11:52:43 51°8.485 2°34.27 75.8 3.3 63 18.2
2004-07-14 11:53:43 51°8.511 2°34.347 72.5 3.3 63 18.1
2004-07-14 11:54:43 51°8.538 2°34.424 67.7 3.3 59 18.2
2004-07-14 11:55:43 51°8.566 2°34.5 68.2 3.3 61 17.7
2004-07-14 11:56:48 51°8.594 2°34.582 73.3 3.3 62 17.8
2004-07-14 11:57:48 51°8.618 2°34.661 75.7 3.3 66 17.8
2004-07-14 11:58:52 51°8.644 2°34.746 72.3 3.4 62 17.6
2004-07-14 11:59:53 51°8.671 2°34.825 66.4 3.3 59 17.4
2004-07-14 12:00:53 51°8.701 2°34.896 58.1 3.2 55 17.5
2004-07-14 12:01:53 51°8.733 2°34.961 48.5 3.1 50 17.5
2004-07-14 12:02:53 51°8.768 2°35.022 47.2 3.1 49 17.8
2004-07-14 12:03:53 51°8.806 2°35.083 38.3 3.5 40 17.8
2004-07-14 12:04:53 51°8.856 2°35.138 19.8 3.6 29 18.1
2004-07-14 12:05:53 51°8.902 2°35.172 359.9 2.7 24 18.1
2004-07-14 12:06:53 51°8.939 2°35.195 343.6 2.1 19 18.3
2004-07-14 12:07:53 51°8.969 2°35.213 331 1.7 23 18.1
2004-07-14 12:08:52 51°8.993 2°35.231 322.3 1.6 27 18.1
2004-07-14 12:09:53 51°9.015 2°35.252 319.8 1.6 32 18.1
2004-07-14 12:10:53 51°9.036 2°35.275 318.9 1.5 36 18.2
2004-07-14 12:11:53 51°9.055 2°35.299 316.4 1.5 41 18.3
2004-07-14 12:12:53 51°9.074 2°35.327 320.3 1.6 43 18.2
2004-07-14 12:13:53 51°9.093 2°35.358 330.6 1.5 43 18.1
2004-07-14 12:14:53 51°9.117 2°35.384 328.1 1.8 26 18.2
2004-07-14 12:15:53 51°9.144 2°35.395 313.3 1.6   18.2
2004-07-14 12:16:58 51°9.173 2°35.385 294.9 1.6 336 17.9
2004-07-14 12:18:00 51°9.197 2°35.367 288.8 1.4 333 18.1
2004-07-14 12:18:58 51°9.218 2°35.348 285.2 1.5 327 18
2004-07-14 12:20:00 51°9.241 2°35.323 279.3 1.6 320 18.3
2004-07-14 12:21:00 51°9.256 2°35.294 269 1.3 302 18.4
2004-07-14 12:21:59 51°9.263 2°35.267 257.5 1 281 18.7
2004-07-14 12:22:59 51°9.261 2°35.247 227.9 0.7 209 18.2
2004-07-14 12:24:00 51°9.244 2°35.252 190.1 1.5 144 18.1
2004-07-14 12:25:00 51°9.219 2°35.293 166.9 2.8 133 18.2
2004-07-14 12:26:00 51°9.167 2°35.338 178.4 4.6 162 18
2004-07-14 12:26:58 51°9.082 2°35.387 169.6 6.3 158 18.1
2004-07-14 12:27:59 51°8.979 2°35.44 178.3 6.7 168 17.8
2004-07-14 12:29:00 51°8.877 2°35.518 149.6 7.1 136 16.2
2004-07-14 12:30:00 51°8.855 2°35.663 97.6 4.5 86 14.7
2004-07-14 12:31:00 51°8.867 2°35.763 90 3.5 78 14
2004-07-14 12:32:00 51°8.883 2°35.848 82.7 3.3 71 13.8
2004-07-14 12:33:00 51°8.898 2°35.927 84.6 3.2 71 13.5
2004-07-14 12:34:01 51°8.914 2°36.013 85 3.5 73 13.2
2004-07-14 12:34:59 51°8.928 2°36.101 86.8 3.6 74 12.8
2004-07-14 12:35:59 51°8.941 2°36.189 90.7 3.1 75 12.5
2004-07-14 12:37:00 51°8.955 2°36.269 87 3 74 12.3
2004-07-14 12:38:00 51°8.967 2°36.345 92.6 2.9 77 12.1
2004-07-14 12:38:59 51°8.975 2°36.419 100.8 2.8 86 11.9
2004-07-14 12:39:59 51°8.986 2°36.497 85.6 3.5 75 11.8
2004-07-14 12:41:00 51°8.996 2°36.589 93.4 3.4 79 11.6
2004-07-14 12:42:00 51°9.009 2°36.676 87.2 3.3 76 11.4
2004-07-14 12:43:01 51°9.023 2°36.76 89 3.2 75 11.4
2004-07-14 12:44:00 51°9.031 2°36.84 100.3 3 86 11.3
2004-07-14 12:45:00 51°9.034 2°36.919 99.4 3.1 80 11.3
2004-07-14 12:46:00 51°9.046 2°37.004 87.5 3.4 73 11.2
2004-07-14 12:47:00 51°9.063 2°37.092 85.9 3.6 74 11.3
2004-07-14 12:48:00 51°9.075 2°37.178 88.8 3.2 75 11.3
2004-07-14 12:49:01 51°9.089 2°37.259 88.6 3.1 77 11.3
2004-07-14 12:49:58 51°9.1 2°37.335 93.3 3 80 11.3
2004-07-14 12:51:00 51°9.116 2°37.416 79.1 3.2 68 11.3
2004-07-14 12:52:00 51°9.135 2°37.496 82.1 3.3 70 11.3
2004-07-14 12:53:00 51°9.15 2°37.58 85.5 3.3 75 11.3
2004-07-14 12:54:00 51°9.166 2°37.661 81.2 3.2 70 11.4
2004-07-14 12:55:00 51°9.183 2°37.743 86.9 3.2 75 11.4
2004-07-14 12:56:00 51°9.198 2°37.823 82.1 3.2 73 11.3
2004-07-14 12:57:00 51°9.214 2°37.904 89.4 3.1 78 11.3
2004-07-14 12:58:00 51°9.225 2°37.984 85.4 3.1 73 11.3
2004-07-14 12:59:00 51°9.242 2°38.064 82.2 3.2 73 11.3
2004-07-14 13:00:00 51°9.26 2°38.145 80.3 3.3 69 11.3
2004-07-14 13:01:03 51°9.28 2°38.227 69.6 3.2 62 11.2
2004-07-14 13:02:03 51°9.304 2°38.304 75.9 3.3 68 11.3
2004-07-14 13:03:03 51°9.326 2°38.381 68 3.1 63 11.2
2004-07-14 13:04:05 51°9.357 2°38.455 62.2 3.5 59 11.3
2004-07-14 13:05:05 51°9.39 2°38.538 63.4 3.8 56 11.4
2004-07-14 13:06:05 51°9.421 2°38.627 67.4 3.9 63 11.4
2004-07-14 13:07:05 51°9.453 2°38.718 65.4 3.9 62 11.4
2004-07-14 13:08:05 51°9.494 2°38.786 35.9 3.1 33 11.5
2004-07-14 13:09:05 51°9.534 2°38.818 17.4 2.5 21 11.7
2004-07-14 13:10:05 51°9.568 2°38.833 359 1.9 10 11.8
2004-07-14 13:11:05 51°9.595 2°38.84 340.3 1.4 3 12
2004-07-14 13:12:05 51°9.616 2°38.844 330.7 1.2 8 12.1
2004-07-14 13:13:04 51°9.633 2°38.848 318.5 0.9 14 12.1
2004-07-14 13:14:05 51°9.649 2°38.854 315.5 1 19 12.1
2004-07-14 13:15:02 51°9.664 2°38.864 322.3 1 25 12.1
2004-07-14 13:16:08 51°9.68 2°38.875 323.1 0.9 27 12.1
2004-07-14 13:17:08 51°9.694 2°38.888 325.2 1 34 12.2
2004-07-14 13:18:07 51°9.708 2°38.903 329.3 0.8 34 12.3
2004-07-14 13:19:08 51°9.73 2°38.906 327.8 1.5 349 12.3
2004-07-14 13:20:07 51°9.756 2°38.897 320.2 1.7 345 12.5
2004-07-14 13:21:08 51°9.783 2°38.886 316.7 1.7 345 12.7
2004-07-14 13:22:08 51°9.811 2°38.873 315.5 1.7 344 12.9
2004-07-14 13:23:08 51°9.836 2°38.856 311.3 1.6 336 13.3
2004-07-14 13:24:08 51°9.861 2°38.839 310.3 1.7 334 13.5
2004-07-14 13:25:08 51°9.885 2°38.82 306.8 1.6 331 13.8
2004-07-14 13:26:07 51°9.907 2°38.802 305.8 1.5 336 14.3
2004-07-14 13:27:07 51°9.929 2°38.79 307.3 1.3 353 14.4
2004-07-14 13:28:07 51°9.949 2°38.794 313.3 1.1 14 14.6
2004-07-14 13:29:08 51°9.966 2°38.804 319.7 1.1 29 14.7
2004-07-14 13:30:08 51°9.981 2°38.821 331.8 1.2 46 14.7
2004-07-14 13:31:13 51°9.995 2°38.842 341.1 1 42 14.9
2004-07-14 13:32:23 51°10.012 2°38.864 338.1 1.1 38 14.9
2004-07-14 13:33:28 51°10.058 2°38.866 351 4.5 359 15.4
2004-07-14 13:34:28 51°10.15 2°38.912 37 6.6 35 15.6
2004-07-14 13:35:28 51°10.228 2°39.123 73.8 11 70 15.8
2004-07-14 13:36:28 51°10.286 2°39.444 80.1 13.9 74 15.2
2004-07-14 13:37:28 51°10.345 2°39.794 81.4 13.8 77 14.3
2004-07-14 13:38:27 51°10.404 2°40.139 79.1 13.7 76 13.8
2004-07-14 13:39:28 51°10.462 2°40.495 78.3 13.5 74 13.3
2004-07-14 13:40:28 51°10.52 2°40.844 81.6 13.9 75 13
2004-07-14 13:41:28 51°10.574 2°41.194 79.8 13.4 76 12.9
2004-07-14 13:42:29 51°10.645 2°41.541 69.6 13.7 65 12.8
2004-07-14 13:43:28 51°10.747 2°41.861 67.4 13.9 64 12.9
2004-07-14 13:44:28 51°10.843 2°42.19 68.4 13.7 64 12.9
2004-07-14 13:45:28 51°10.934 2°42.519 71.8 13.5 67 13.1
2004-07-14 13:46:28 51°11.019 2°42.856 70.4 13.6 69 13.1
2004-07-14 13:47:28 51°11.098 2°43.199 75.3 13.7 70 13.1
2004-07-14 13:48:28 51°11.175 2°43.54 73.7 13.7 71 13
2004-07-14 13:49:28 51°11.256 2°43.881 74.6 14 70 13.1
2004-07-14 13:50:27 51°11.332 2°44.218 75.9 13.9 72 13
2004-07-14 13:51:28 51°11.408 2°44.569 75.3 13.8 70 13.3
2004-07-14 13:52:28 51°11.486 2°44.91 73.5 13.7 69 13.2
2004-07-14 13:53:28 51°11.561 2°45.254 77.8 14.2 70 13.1
2004-07-14 13:54:28 51°11.635 2°45.596 75.9 13.3 71 13.4
2004-07-14 13:55:28 51°11.713 2°45.934 74.7 13.5 70 13.3
2004-07-14 13:56:28 51°11.794 2°46.272 75.4 14 70 13.2
2004-07-14 13:57:27 51°11.869 2°46.604 73.4 13.3 71 13.2
2004-07-14 13:58:27 51°11.949 2°46.94 75.6 13.3 72 13.1
2004-07-14 13:59:27 51°12.028 2°47.278 73.9 13.4 72 12.9
2004-07-14 14:00:28 51°12.12 2°47.611 67.9 13.4 67 12.8
2004-07-14 14:01:28 51°12.213 2°47.936 70 13.7 68 12.6
2004-07-14 14:02:28 51°12.309 2°48.258 68.4 13.3 66 12.5
2004-07-14 14:03:27 51°12.404 2°48.574 69.7 13.5 67 12.2
2004-07-14 14:04:27 51°12.503 2°48.897 66.6 13.5 63 12.1
2004-07-14 14:05:28 51°12.603 2°49.223 67 13.1 63 11.9
2004-07-14 14:06:28 51°12.699 2°49.544 70.1 13.4 65 11.7
2004-07-14 14:07:28 51°12.795 2°49.872 68.8 13.7 65 11.5
2004-07-14 14:08:27 51°12.888 2°50.191 71.8 13.5 64 11.3
2004-07-14 14:09:28 51°12.983 2°50.52 69.7 13.6 63 11
2004-07-14 14:10:28 51°13.093 2°50.828 65.9 13.4 62 10.8
2004-07-14 14:11:28 51°13.212 2°51.134 64.3 13.6 62 10.9
2004-07-14 14:12:29 51°13.33 2°51.445 60.2 13.8 53 10.8
2004-07-14 14:13:29 51°13.453 2°51.738 64 13.7 57 10.8
2004-07-14 14:14:29 51°13.572 2°52.041 62.3 13.4 55 10.8
2004-07-14 14:15:28 51°13.689 2°52.333 61.6 13.3 56 10.8
2004-07-14 14:16:29 51°13.808 2°52.638 62 13.1 59 10.7
2004-07-14 14:17:29 51°13.931 2°52.937 57.3 13.5 51 10.4
2004-07-14 14:18:29 51°14.038 2°53.213 67.5 9.4 69 10.3
2004-07-14 14:19:29 51°14.063 2°53.379 76.5 5.2 69 10.1
2004-07-14 14:20:29 51°14.094 2°53.476 57.2 3.5 57 10.1
2004-07-14 14:21:29 51°14.119 2°53.53 48 1.8 56 10.1
2004-07-14 14:22:29 51°14.134 2°53.561 29.4 1.3 46 9.5
2004-07-14 14:23:29 51°14.152 2°53.581 15.2 1.3 33 10.1
2004-07-14 14:24:29 51°14.168 2°53.594 3.8 1 19 10.1
2004-07-14 14:25:29 51°14.18 2°53.604 353.1 0.7 40 10.1
2004-07-14 14:26:29 51°14.182 2°53.621 351.2 0.9 103 10
2004-07-14 14:27:29 51°14.174 2°53.642 6.2 1 118 9.8
2004-07-14 14:28:29 51°14.171 2°53.661 16.6 0.7 78 9.9
2004-07-14 14:29:29 51°14.176 2°53.681 8 0.9 63 9.9
2004-07-14 14:30:30 51°14.184 2°53.698 356.7 1 53 10
2004-07-14 14:31:28 51°14.192 2°53.712 348.4 0.8 45 10.2
2004-07-14 14:32:28 51°14.221 2°53.719 2.6 3.2 2 10
2004-07-14 14:33:29 51°14.283 2°53.795 65 6.8 71 10.1
2004-07-14 14:34:28 51°14.319 2°54.059 80.5 11.8 78 9.6
2004-07-14 14:35:29 51°14.371 2°54.38 73.4 12.2 72 9.7
2004-07-14 14:36:29 51°14.419 2°54.693 95.1 12 93 11
2004-07-14 14:37:29 51°14.376 2°55.001 113.3 12 111 10.7
2004-07-14 14:38:29 51°14.267 2°55.258 137.8 11.3 136 11.5
2004-07-14 14:39:29 51°14.134 2°55.411 158.3 8.6 155 11.7
2004-07-14 14:40:29 51°14.016 2°55.498 159.6 7.5 156 10.9
2004-07-14 14:41:29 51°13.904 2°55.581 159.1 7.4 154 9.9
2004-07-14 14:42:29 51°13.794 2°55.664 159.6 7.2 155 10.1
2004-07-14 14:43:28 51°13.712 2°55.778 132.2 5.8 128 13.2
2004-07-14 14:44:29 51°13.665 2°55.892 126.2 4.6 122 10.5